sensor_id;sensor_type;location;lat;lon;timestamp;pressure;altitude;pressure_sealevel;temperature;humidity
46718;BME280;32448;44.960;-0.698;2023-01-01T00:00:41;101608.69;;;9.04;100.00
46718;BME280;32448;44.960;-0.698;2023-01-01T00:03:09;101609.38;;;9.00;100.00
46718;BME280;32448;44.960;-0.698;2023-01-01T00:05:39;101625.97;;;9.02;100.00
46718;BME280;32448;44.960;-0.698;2023-01-01T00:08:07;101611.53;;;8.88;100.00
46718;BME280;32448;44.960;-0.698;2023-01-01T00:10:34;101612.38;;;8.87;100.00
46718;BME280;32448;44.960;-0.698;2023-01-01T00:13:02;101616.81;;;8.90;100.00
46718;BME280;32448;44.960;-0.698;2023-01-01T00:15:29;101608.66;;;8.81;100.00
46718;BME280;32448;44.960;-0.698;2023-01-01T00:17:58;101613.03;;;8.82;100.00
46718;BME280;32448;44.960;-0.698;2023-01-01T00:20:25;101616.41;;;8.79;100.00
46718;BME280;32448;44.960;-0.698;2023-01-01T00:23:02;101615.41;;;8.75;100.00
46718;BME280;32448;44.960;-0.698;2023-01-01T00:25:29;101612.72;;;8.72;100.00
46718;BME280;32448;44.960;-0.698;2023-01-01T00:27:58;101614.44;;;8.72;100.00
46718;BME280;32448;44.960;-0.698;2023-01-01T00:30:25;101606.41;;;8.67;100.00
46718;BME280;32448;44.960;-0.698;2023-01-01T00:32:54;101607.31;;;8.68;100.00
46718;BME280;32448;44.960;-0.698;2023-01-01T00:35:24;101609.91;;;8.68;100.00
46718;BME280;32448;44.960;-0.698;2023-01-01T00:37:52;101606.41;;;8.67;100.00
46718;BME280;32448;44.960;-0.698;2023-01-01T00:40:21;101599.91;;;8.56;100.00
46718;BME280;32448;44.960;-0.698;2023-01-01T00:42:48;101611.44;;;8.63;100.00
46718;BME280;32448;44.960;-0.698;2023-01-01T00:45:15;101612.41;;;8.65;100.00
46718;BME280;32448;44.960;-0.698;2023-01-01T00:47:52;101610.81;;;8.68;100.00
46718;BME280;32448;44.960;-0.698;2023-01-01T00:50:21;101605.66;;;8.70;100.00
46718;BME280;32448;44.960;-0.698;2023-01-01T00:52:48;101595.94;;;8.66;100.00
46718;BME280;32448;44.960;-0.698;2023-01-01T00:55:16;101594.03;;;8.62;100.00
46718;BME280;32448;44.960;-0.698;2023-01-01T00:57:44;101604.56;;;8.65;100.00
46718;BME280;32448;44.960;-0.698;2023-01-01T01:00:12;101601.69;;;8.57;100.00
46718;BME280;32448;44.960;-0.698;2023-01-01T01:02:40;101608.00;;;8.64;100.00
46718;BME280;32448;44.960;-0.698;2023-01-01T01:05:08;101609.03;;;8.67;100.00
46718;BME280;32448;44.960;-0.698;2023-01-01T01:07:35;101604.56;;;8.65;100.00
46718;BME280;32448;44.960;-0.698;2023-01-01T01:10:04;101608.13;;;8.67;100.00
46718;BME280;32448;44.960;-0.698;2023-01-01T01:12:33;101612.47;;;8.66;100.00
46718;BME280;32448;44.960;-0.698;2023-01-01T01:15:02;101612.28;;;8.62;100.00
46718;BME280;32448;44.960;-0.698;2023-01-01T01:17:31;101611.50;;;8.64;100.00
46718;BME280;32448;44.960;-0.698;2023-01-01T01:22:44;101615.88;;;8.65;100.00
46718;BME280;32448;44.960;-0.698;2023-01-01T01:25:11;101616.91;;;8.69;100.00
46718;BME280;32448;44.960;-0.698;2023-01-01T01:27:39;101617.03;;;8.72;100.00
46718;BME280;32448;44.960;-0.698;2023-01-01T01:30:11;101619.44;;;8.67;100.00
46718;BME280;32448;44.960;-0.698;2023-01-01T01:32:38;101609.66;;;8.62;100.00
46718;BME280;32448;44.960;-0.698;2023-01-01T01:35:06;101618.44;;;8.64;100.00
46718;BME280;32448;44.960;-0.698;2023-01-01T01:37:34;101616.38;;;8.55;100.00
46718;BME280;32448;44.960;-0.698;2023-01-01T01:40:01;101605.88;;;8.54;100.00
46718;BME280;32448;44.960;-0.698;2023-01-01T01:42:29;101627.75;;;8.57;100.00
46718;BME280;32448;44.960;-0.698;2023-01-01T01:44:57;101667.00;;;9.30;100.00
46718;BME280;32448;44.960;-0.698;2023-01-01T01:52:37;101667.63;;;9.72;100.00
46718;BME280;32448;44.960;-0.698;2023-01-01T01:55:07;101700.47;;;9.66;100.00
46718;BME280;32448;44.960;-0.698;2023-01-01T01:57:37;101704.94;;;9.94;100.00
46718;BME280;32448;44.960;-0.698;2023-01-01T02:00:05;101708.28;;;10.15;100.00
46718;BME280;32448;44.960;-0.698;2023-01-01T02:02:44;101714.88;;;10.05;100.00
46718;BME280;32448;44.960;-0.698;2023-01-01T02:05:15;101690.50;;;9.79;100.00
46718;BME280;32448;44.960;-0.698;2023-01-01T02:07:44;101718.78;;;9.67;100.00
46718;BME280;32448;44.960;-0.698;2023-01-01T02:10:11;101708.47;;;9.46;100.00
46718;BME280;32448;44.960;-0.698;2023-01-01T02:12:39;101698.41;;;9.33;100.00
46718;BME280;32448;44.960;-0.698;2023-01-01T02:15:07;101691.03;;;9.22;100.00
46718;BME280;32448;44.960;-0.698;2023-01-01T02:28:58;101709.16;;;8.74;100.00
46718;BME280;32448;44.960;-0.698;2023-01-01T02:31:37;101720.63;;;8.77;100.00
46718;BME280;32448;44.960;-0.698;2023-01-01T02:34:12;101718.69;;;8.72;100.00
46718;BME280;32448;44.960;-0.698;2023-01-01T02:36:45;101724.50;;;8.66;100.00
46718;BME280;32448;44.960;-0.698;2023-01-01T02:39:15;101708.31;;;8.53;100.00
46718;BME280;32448;44.960;-0.698;2023-01-01T02:41:49;101725.19;;;8.61;100.00
46718;BME280;32448;44.960;-0.698;2023-01-01T02:44:21;101723.63;;;8.66;100.00
46718;BME280;32448;44.960;-0.698;2023-01-01T02:46:51;101727.81;;;8.62;100.00
46718;BME280;32448;44.960;-0.698;2023-01-01T02:49:18;101717.34;;;8.61;100.00
46718;BME280;32448;44.960;-0.698;2023-01-01T02:52:03;101714.84;;;8.64;100.00
46718;BME280;32448;44.960;-0.698;2023-01-01T02:57:30;101699.16;;;8.62;100.00
46718;BME280;32448;44.960;-0.698;2023-01-01T03:00:11;101717.59;;;8.67;100.00
46718;BME280;32448;44.960;-0.698;2023-01-01T03:03:27;101711.50;;;8.66;100.00
46718;BME280;32448;44.960;-0.698;2023-01-01T03:06:05;101709.72;;;8.65;100.00
46718;BME280;32448;44.960;-0.698;2023-01-01T03:11:20;101681.78;;;8.61;100.00
46718;BME280;32448;44.960;-0.698;2023-01-01T03:14:06;101694.06;;;8.65;100.00
46718;BME280;32448;44.960;-0.698;2023-01-01T03:19:17;101708.81;;;8.65;100.00
46718;BME280;32448;44.960;-0.698;2023-01-01T03:21:50;101714.09;;;8.66;100.00
46718;BME280;32448;44.960;-0.698;2023-01-01T03:27:06;101711.41;;;8.65;100.00
46718;BME280;32448;44.960;-0.698;2023-01-01T03:29:37;101710.66;;;8.67;100.00
46718;BME280;32448;44.960;-0.698;2023-01-01T03:32:07;101711.50;;;8.66;100.00
46718;BME280;32448;44.960;-0.698;2023-01-01T03:34:42;101714.22;;;8.69;100.00
46718;BME280;32448;44.960;-0.698;2023-01-01T03:37:18;101709.63;;;8.64;100.00
46718;BME280;32448;44.960;-0.698;2023-01-01T03:39:55;101701.00;;;8.65;100.00
46718;BME280;32448;44.960;-0.698;2023-01-01T03:42:39;101702.84;;;8.67;100.00
46718;BME280;32448;44.960;-0.698;2023-01-01T03:47:46;101715.19;;;8.71;100.00
46718;BME280;32448;44.960;-0.698;2023-01-01T03:50:14;101697.56;;;8.66;100.00
46718;BME280;32448;44.960;-0.698;2023-01-01T03:55:30;101677.53;;;8.65;100.00
46718;BME280;32448;44.960;-0.698;2023-01-01T03:58:20;101677.38;;;8.60;100.00
46718;BME280;32448;44.960;-0.698;2023-01-01T04:00:55;101679.09;;;8.60;100.00
46718;BME280;32448;44.960;-0.698;2023-01-01T04:03:28;101662.25;;;8.52;100.00
46718;BME280;32448;44.960;-0.698;2023-01-01T04:05:57;101650.25;;;8.55;100.00
46718;BME280;32448;44.960;-0.698;2023-01-01T04:08:24;101653.69;;;8.54;100.00
46718;BME280;32448;44.960;-0.698;2023-01-01T04:10:56;101641.31;;;8.49;100.00
46718;BME280;32448;44.960;-0.698;2023-01-01T04:13:25;101654.41;;;8.50;100.00
46718;BME280;32448;44.960;-0.698;2023-01-01T04:15:52;101665.75;;;8.52;100.00
46718;BME280;32448;44.960;-0.698;2023-01-01T04:18:21;101670.06;;;8.52;100.00
46718;BME280;32448;44.960;-0.698;2023-01-01T04:20:48;101683.09;;;8.52;100.00
46718;BME280;32448;44.960;-0.698;2023-01-01T04:23:15;101688.56;;;8.58;100.00
46718;BME280;32448;44.960;-0.698;2023-01-01T04:25:43;101676.09;;;8.51;100.00
46718;BME280;32448;44.960;-0.698;2023-01-01T04:28:10;101676.91;;;8.48;100.00
46718;BME280;32448;44.960;-0.698;2023-01-01T04:30:38;101674.53;;;8.54;100.00
46718;BME280;32448;44.960;-0.698;2023-01-01T04:33:04;101670.31;;;8.58;100.00
46718;BME280;32448;44.960;-0.698;2023-01-01T04:35:32;101661.56;;;8.56;100.00
46718;BME280;32448;44.960;-0.698;2023-01-01T04:37:59;101670.06;;;8.52;100.00
46718;BME280;32448;44.960;-0.698;2023-01-01T04:40:29;101671.91;;;8.54;100.00
46718;BME280;32448;44.960;-0.698;2023-01-01T04:42:57;101663.22;;;8.54;100.00
46718;BME280;32448;44.960;-0.698;2023-01-01T04:45:24;101668.41;;;8.54;100.00
46718;BME280;32448;44.960;-0.698;2023-01-01T04:47:51;101662.22;;;8.50;100.00
46718;BME280;32448;44.960;-0.698;2023-01-01T04:50:19;101668.19;;;8.48;100.00
46718;BME280;32448;44.960;-0.698;2023-01-01T04:52:46;101679.59;;;8.51;100.00
46718;BME280;32448;44.960;-0.698;2023-01-01T04:55:18;101658.41;;;8.42;100.00
46718;BME280;32448;44.960;-0.698;2023-01-01T04:57:47;101664.75;;;8.49;100.00
46718;BME280;32448;44.960;-0.698;2023-01-01T05:00:14;101658.47;;;8.44;100.00
46718;BME280;32448;44.960;-0.698;2023-01-01T05:02:42;101662.84;;;8.45;100.00
46718;BME280;32448;44.960;-0.698;2023-01-01T05:05:09;101654.06;;;8.43;100.00
46718;BME280;32448;44.960;-0.698;2023-01-01T05:07:37;101655.16;;;8.48;100.00
46718;BME280;32448;44.960;-0.698;2023-01-01T05:10:05;101659.16;;;8.39;100.00
46718;BME280;32448;44.960;-0.698;2023-01-01T05:12:32;101616.31;;;8.11;100.00
46718;BME280;32448;44.960;-0.698;2023-01-01T05:15:00;101663.50;;;8.39;100.00
46718;BME280;32448;44.960;-0.698;2023-01-01T05:17:27;101661.53;;;8.33;100.00
46718;BME280;32448;44.960;-0.698;2023-01-01T05:19:54;101651.59;;;8.25;100.00
46718;BME280;32448;44.960;-0.698;2023-01-01T05:22:22;101654.97;;;8.22;100.00
46718;BME280;32448;44.960;-0.698;2023-01-01T05:24:49;101649.63;;;8.19;100.00
46718;BME280;32448;44.960;-0.698;2023-01-01T05:27:17;101639.13;;;8.16;100.00
46718;BME280;32448;44.960;-0.698;2023-01-01T05:29:44;101640.81;;;8.16;100.00
46718;BME280;32448;44.960;-0.698;2023-01-01T05:32:12;101631.84;;;8.09;100.00
46718;BME280;32448;44.960;-0.698;2023-01-01T05:34:38;101637.88;;;8.08;100.00
46718;BME280;32448;44.960;-0.698;2023-01-01T05:37:05;101632.31;;;7.99;100.00
46718;BME280;32448;44.960;-0.698;2023-01-01T05:39:32;101630.59;;;7.99;100.00
46718;BME280;32448;44.960;-0.698;2023-01-01T05:42:00;101633.66;;;7.89;100.00
46718;BME280;32448;44.960;-0.698;2023-01-01T05:44:27;101642.59;;;7.96;100.00
46718;BME280;32448;44.960;-0.698;2023-01-01T05:46:55;101643.47;;;7.96;100.00
46718;BME280;32448;44.960;-0.698;2023-01-01T05:49:22;101657.97;;;7.90;100.00
46718;BME280;32448;44.960;-0.698;2023-01-01T05:51:50;101663.09;;;7.88;100.00
46718;BME280;32448;44.960;-0.698;2023-01-01T05:54:17;101673.44;;;7.87;100.00
46718;BME280;32448;44.960;-0.698;2023-01-01T05:56:43;101668.97;;;7.83;100.00
46718;BME280;32448;44.960;-0.698;2023-01-01T05:59:11;101654.03;;;7.79;100.00
46718;BME280;32448;44.960;-0.698;2023-01-01T06:01:38;101648.97;;;7.82;100.00
46718;BME280;32448;44.960;-0.698;2023-01-01T06:04:11;101644.50;;;7.79;100.00
46718;BME280;32448;44.960;-0.698;2023-01-01T06:06:39;101621.69;;;7.74;100.00
46718;BME280;32448;44.960;-0.698;2023-01-01T06:09:08;101638.34;;;7.77;100.00
46718;BME280;32448;44.960;-0.698;2023-01-01T06:11:36;101628.69;;;7.75;100.00
46718;BME280;32448;44.960;-0.698;2023-01-01T06:14:03;101620.94;;;7.76;100.00
46718;BME280;32448;44.960;-0.698;2023-01-01T06:16:31;101569.56;;;7.50;100.00
46718;BME280;32448;44.960;-0.698;2023-01-01T06:18:59;101625.84;;;7.68;100.00
46718;BME280;32448;44.960;-0.698;2023-01-01T06:21:27;101634.41;;;7.66;100.00
46718;BME280;32448;44.960;-0.698;2023-01-01T06:23:57;101630.91;;;7.65;100.00
46718;BME280;32448;44.960;-0.698;2023-01-01T06:26:27;101615.94;;;7.60;100.00
46718;BME280;32448;44.960;-0.698;2023-01-01T06:28:56;101623.91;;;7.64;100.00
46718;BME280;32448;44.960;-0.698;2023-01-01T06:31:24;101620.44;;;7.64;100.00
46718;BME280;32448;44.960;-0.698;2023-01-01T06:33:52;101620.56;;;7.67;100.00
46718;BME280;32448;44.960;-0.698;2023-01-01T06:36:21;101608.53;;;7.69;100.00
46718;BME280;32448;44.960;-0.698;2023-01-01T06:38:52;101607.03;;;7.76;100.00
46718;BME280;32448;44.960;-0.698;2023-01-01T06:41:22;101602.56;;;7.72;100.00
46718;BME280;32448;44.960;-0.698;2023-01-01T06:43:50;101606.09;;;7.74;100.00
46718;BME280;32448;44.960;-0.698;2023-01-01T06:48:56;101610.59;;;7.78;100.00
46718;BME280;32448;44.960;-0.698;2023-01-01T06:51:25;101604.56;;;7.79;100.00
46718;BME280;32448;44.960;-0.698;2023-01-01T06:53:54;101607.31;;;7.82;100.00
46718;BME280;32448;44.960;-0.698;2023-01-01T06:56:24;101597.78;;;7.82;100.00
46718;BME280;32448;44.960;-0.698;2023-01-01T06:58:51;101597.00;;;7.85;100.00
46718;BME280;32448;44.960;-0.698;2023-01-01T07:01:21;101584.88;;;7.85;100.00
46718;BME280;32448;44.960;-0.698;2023-01-01T07:03:57;101560.88;;;7.70;100.00
46718;BME280;32448;44.960;-0.698;2023-01-01T07:06:27;101582.28;;;7.85;100.00
46718;BME280;32448;44.960;-0.698;2023-01-01T07:08:55;101558.56;;;7.78;100.00
46718;BME280;32448;44.960;-0.698;2023-01-01T07:11:23;101578.09;;;7.89;100.00
46718;BME280;32448;44.960;-0.698;2023-01-01T07:13:51;101585.16;;;7.91;100.00
46718;BME280;32448;44.960;-0.698;2023-01-01T07:16:18;101580.78;;;7.90;100.00
46718;BME280;32448;44.960;-0.698;2023-01-01T07:18:45;101572.06;;;7.90;100.00
46718;BME280;32448;44.960;-0.698;2023-01-01T07:21:32;101579.19;;;7.94;100.00
46718;BME280;32448;44.960;-0.698;2023-01-01T07:24:02;101569.59;;;7.93;100.00
46718;BME280;32448;44.960;-0.698;2023-01-01T07:26:31;101576.63;;;7.95;100.00
46718;BME280;32448;44.960;-0.698;2023-01-01T07:28:59;101551.03;;;7.84;100.00
46718;BME280;32448;44.960;-0.698;2023-01-01T07:31:35;101570.72;;;7.99;100.00
46718;BME280;32448;44.960;-0.698;2023-01-01T07:34:05;101557.41;;;7.92;100.00
46718;BME280;32448;44.960;-0.698;2023-01-01T07:36:33;101572.63;;;8.03;100.00
46718;BME280;32448;44.960;-0.698;2023-01-01T07:39:00;101570.38;;;8.13;100.00
46718;BME280;32448;44.960;-0.698;2023-01-01T07:41:27;101567.84;;;8.14;100.00
46718;BME280;32448;44.960;-0.698;2023-01-01T07:43:58;101570.31;;;8.11;100.00
46718;BME280;32448;44.960;-0.698;2023-01-01T07:46:26;101574.94;;;8.18;100.00
46718;BME280;32448;44.960;-0.698;2023-01-01T07:48:53;101567.91;;;8.16;100.00
46718;BME280;32448;44.960;-0.698;2023-01-01T07:51:21;101565.25;;;8.14;100.00
46718;BME280;32448;44.960;-0.698;2023-01-01T07:53:50;101551.41;;;8.15;100.00
46718;BME280;32448;44.960;-0.698;2023-01-01T07:56:17;101555.13;;;8.22;100.00
46718;BME280;32448;44.960;-0.698;2023-01-01T07:58:45;101557.09;;;8.27;100.00
46718;BME280;32448;44.960;-0.698;2023-01-01T08:01:12;101551.69;;;8.23;100.00
46718;BME280;32448;44.960;-0.698;2023-01-01T08:03:41;101551.69;;;8.23;100.00
46718;BME280;32448;44.960;-0.698;2023-01-01T08:06:10;101535.84;;;8.17;100.00
46718;BME280;32448;44.960;-0.698;2023-01-01T08:08:38;101554.75;;;8.33;100.00
46718;BME280;32448;44.960;-0.698;2023-01-01T08:11:06;101555.97;;;8.43;100.00
46718;BME280;32448;44.960;-0.698;2023-01-01T08:13:34;101543.06;;;8.46;100.00
46718;BME280;32448;44.960;-0.698;2023-01-01T08:16:01;101555.56;;;8.55;100.00
46718;BME280;32448;44.960;-0.698;2023-01-01T08:18:29;101558.44;;;8.62;100.00
46718;BME280;32448;44.960;-0.698;2023-01-01T08:20:56;101552.56;;;8.68;100.00
46718;BME280;32448;44.960;-0.698;2023-01-01T08:23:23;101540.94;;;8.82;100.00
46718;BME280;32448;44.960;-0.698;2023-01-01T08:25:51;101540.50;;;8.94;100.00
46718;BME280;32448;44.960;-0.698;2023-01-01T08:28:18;101541.66;;;9.02;100.00
46718;BME280;32448;44.960;-0.698;2023-01-01T08:30:46;101526.38;;;9.12;100.00
46718;BME280;32448;44.960;-0.698;2023-01-01T08:33:13;101518.09;;;9.24;100.00
46718;BME280;32448;44.960;-0.698;2023-01-01T08:35:41;101513.97;;;9.31;100.00
46718;BME280;32448;44.960;-0.698;2023-01-01T08:38:16;101524.34;;;9.55;100.00
46718;BME280;32448;44.960;-0.698;2023-01-01T08:40:43;101521.34;;;9.69;100.00
46718;BME280;32448;44.960;-0.698;2023-01-01T08:43:11;101514.13;;;9.61;100.00
46718;BME280;32448;44.960;-0.698;2023-01-01T08:45:38;101516.41;;;9.78;100.00
46718;BME280;32448;44.960;-0.698;2023-01-01T08:48:05;101523.03;;;9.96;100.00
46718;BME280;32448;44.960;-0.698;2023-01-01T08:50:33;101517.25;;;10.04;100.00
46718;BME280;32448;44.960;-0.698;2023-01-01T08:53:00;101507.06;;;10.13;100.00
46718;BME280;32448;44.960;-0.698;2023-01-01T08:55:28;101506.44;;;10.20;100.00
46718;BME280;32448;44.960;-0.698;2023-01-01T08:57:55;101499.59;;;10.24;100.00
46718;BME280;32448;44.960;-0.698;2023-01-01T09:00:24;101504.16;;;10.31;100.00
46718;BME280;32448;44.960;-0.698;2023-01-01T09:02:51;101491.19;;;10.34;100.00
46718;BME280;32448;44.960;-0.698;2023-01-01T09:05:19;101494.25;;;10.51;100.00
46718;BME280;32448;44.960;-0.698;2023-01-01T09:07:46;101490.91;;;10.55;100.00
46718;BME280;32448;44.960;-0.698;2023-01-01T09:10:13;101482.44;;;10.64;100.00
46718;BME280;32448;44.960;-0.698;2023-01-01T09:12:40;101471.44;;;10.75;100.00
46718;BME280;32448;44.960;-0.698;2023-01-01T09:15:17;101476.00;;;10.82;100.00
46718;BME280;32448;44.960;-0.698;2023-01-01T09:17:45;101468.25;;;10.87;100.00
46718;BME280;32448;44.960;-0.698;2023-01-01T09:20:13;101483.41;;;10.99;100.00
46718;BME280;32448;44.960;-0.698;2023-01-01T09:22:40;101481.81;;;11.05;100.00
46718;BME280;32448;44.960;-0.698;2023-01-01T09:25:07;101480.19;;;11.09;100.00
46718;BME280;32448;44.960;-0.698;2023-01-01T09:27:36;101494.41;;;11.20;100.00
46718;BME280;32448;44.960;-0.698;2023-01-01T09:30:03;101495.25;;;11.19;100.00
46718;BME280;32448;44.960;-0.698;2023-01-01T09:32:31;101496.09;;;11.18;100.00
46718;BME280;32448;44.960;-0.698;2023-01-01T09:34:58;101499.66;;;11.20;100.00
46718;BME280;32448;44.960;-0.698;2023-01-01T09:37:27;101479.47;;;11.14;100.00
46718;BME280;32448;44.960;-0.698;2023-01-01T09:39:54;101493.59;;;11.21;100.00
46718;BME280;32448;44.960;-0.698;2023-01-01T09:42:42;101482.88;;;11.12;100.00
46718;BME280;32448;44.960;-0.698;2023-01-01T09:46:12;101483.84;;;11.15;100.00
46718;BME280;32448;44.960;-0.698;2023-01-01T09:48:10;101466.38;;;11.14;100.00
46718;BME280;32448;44.960;-0.698;2023-01-01T09:50:42;101465.59;;;11.18;100.00
46718;BME280;32448;44.960;-0.698;2023-01-01T09:56:14;101464.72;;;11.18;100.00
46718;BME280;32448;44.960;-0.698;2023-01-01T09:58:44;101465.63;;;11.20;100.00
46718;BME280;32448;44.960;-0.698;2023-01-01T10:07:02;101472.78;;;11.27;100.00
46718;BME280;32448;44.960;-0.698;2023-01-01T10:09:53;101474.47;;;11.23;100.00
46718;BME280;32448;44.960;-0.698;2023-01-01T10:15:24;101457.09;;;11.27;100.00
46718;BME280;32448;44.960;-0.698;2023-01-01T10:17:57;101454.56;;;11.30;100.00
46718;BME280;32448;44.960;-0.698;2023-01-01T10:20:45;101462.31;;;11.25;100.00
46718;BME280;32448;44.960;-0.698;2023-01-01T10:23:43;101447.59;;;11.30;100.00
46718;BME280;32448;44.960;-0.698;2023-01-01T10:26:16;101443.25;;;11.31;100.00
46718;BME280;32448;44.960;-0.698;2023-01-01T10:29:03;101431.22;;;11.38;100.00
46718;BME280;32448;44.960;-0.698;2023-01-01T10:31:34;101426.22;;;11.48;100.00
46718;BME280;32448;44.960;-0.698;2023-01-01T10:34:12;101423.63;;;11.50;100.00
46718;BME280;32448;44.960;-0.698;2023-01-01T10:36:45;101419.22;;;11.47;100.00
46718;BME280;32448;44.960;-0.698;2023-01-01T10:39:16;101425.50;;;11.55;100.00
46718;BME280;32448;44.960;-0.698;2023-01-01T10:41:45;101429.03;;;11.56;100.00
46718;BME280;32448;44.960;-0.698;2023-01-01T10:44:15;101417.06;;;11.67;100.00
46718;BME280;32448;44.960;-0.698;2023-01-01T10:46:50;101408.31;;;11.66;100.00
46718;BME280;32448;44.960;-0.698;2023-01-01T10:49:19;101415.44;;;11.74;100.00
46718;BME280;32448;44.960;-0.698;2023-01-01T10:51:49;101406.00;;;11.79;100.00
46718;BME280;32448;44.960;-0.698;2023-01-01T10:56:55;101387.63;;;11.77;100.00
46718;BME280;32448;44.960;-0.698;2023-01-01T10:59:37;101349.81;;;11.66;100.00
46718;BME280;32448;44.960;-0.698;2023-01-01T11:02:25;101382.50;;;11.82;100.00
46718;BME280;32448;44.960;-0.698;2023-01-01T11:05:29;101377.47;;;11.91;100.00
46718;BME280;32448;44.960;-0.698;2023-01-01T11:07:57;101379.19;;;11.90;100.00
46718;BME280;32448;44.960;-0.698;2023-01-01T11:10:24;101382.94;;;12.01;100.00
46718;BME280;32448;44.960;-0.698;2023-01-01T11:12:51;101384.63;;;11.99;100.00
46718;BME280;32448;44.960;-0.698;2023-01-01T11:15:38;101362.00;;;12.04;100.00
46718;BME280;32448;44.960;-0.698;2023-01-01T11:18:20;101370.97;;;12.14;100.00
46718;BME280;32448;44.960;-0.698;2023-01-01T11:20:57;101367.84;;;12.33;100.00
46718;BME280;32448;44.960;-0.698;2023-01-01T11:23:29;101361.84;;;12.40;100.00
46718;BME280;32448;44.960;-0.698;2023-01-01T11:28:34;101350.84;;;12.58;100.00
46718;BME280;32448;44.960;-0.698;2023-01-01T11:33:51;101330.44;;;12.92;100.00
46718;BME280;32448;44.960;-0.698;2023-01-01T11:36:24;101322.72;;;13.02;100.00
46718;BME280;32448;44.960;-0.698;2023-01-01T11:41:45;101304.13;;;13.44;100.00
46718;BME280;32448;44.960;-0.698;2023-01-01T11:44:26;101309.59;;;13.61;100.00
46718;BME280;32448;44.960;-0.698;2023-01-01T11:46:56;101308.97;;;13.79;100.00
46718;BME280;32448;44.960;-0.698;2023-01-01T11:49:26;101280.81;;;13.72;100.00
46718;BME280;32448;44.960;-0.698;2023-01-01T11:51:55;101305.66;;;13.97;100.00
46718;BME280;32448;44.960;-0.698;2023-01-01T11:54:27;101296.31;;;14.21;100.00
46718;BME280;32448;44.960;-0.698;2023-01-01T11:57:03;101282.44;;;14.38;100.00
46718;BME280;32448;44.960;-0.698;2023-01-01T11:59:45;101277.34;;;14.53;100.00
46718;BME280;32448;44.960;-0.698;2023-01-01T12:02:29;101270.56;;;14.82;100.00
46718;BME280;32448;44.960;-0.698;2023-01-01T12:05:23;101275.03;;;14.92;100.00
46718;BME280;32448;44.960;-0.698;2023-01-01T12:07:55;101273.41;;;15.10;100.00
46718;BME280;32448;44.960;-0.698;2023-01-01T12:10:27;101283.16;;;15.26;100.00
46718;BME280;32448;44.960;-0.698;2023-01-01T12:13:03;101254.25;;;15.35;100.00
46718;BME280;32448;44.960;-0.698;2023-01-01T12:15:40;101268.47;;;15.64;100.00
46718;BME280;32448;44.960;-0.698;2023-01-01T12:21:19;101260.50;;;15.58;100.00
46718;BME280;32448;44.960;-0.698;2023-01-01T12:23:50;101264.94;;;15.64;100.00
46718;BME280;32448;44.960;-0.698;2023-01-01T12:26:28;101265.78;;;15.60;100.00
46718;BME280;32448;44.960;-0.698;2023-01-01T12:32:22;101241.25;;;15.65;100.00
46718;BME280;32448;44.960;-0.698;2023-01-01T12:35:03;101264.06;;;15.70;100.00
46718;BME280;32448;44.960;-0.698;2023-01-01T12:43:10;101243.84;;;15.56;100.00
46718;BME280;32448;44.960;-0.698;2023-01-01T12:56:28;101223.50;;;15.37;100.00
46718;BME280;32448;44.960;-0.698;2023-01-01T12:59:12;101205.06;;;15.36;100.00
46718;BME280;32448;44.960;-0.698;2023-01-01T13:01:41;101209.47;;;15.37;100.00
46718;BME280;32448;44.960;-0.698;2023-01-01T13:04:12;101203.31;;;15.32;100.00
46718;BME280;32448;44.960;-0.698;2023-01-01T13:07:07;101183.06;;;15.21;100.00
46718;BME280;32448;44.960;-0.698;2023-01-01T13:09:41;101192.72;;;15.25;100.00
46718;BME280;32448;44.960;-0.698;2023-01-01T13:12:16;101184.84;;;15.27;100.00
46718;BME280;32448;44.960;-0.698;2023-01-01T13:14:46;101183.09;;;15.27;100.00
46718;BME280;32448;44.960;-0.698;2023-01-01T13:17:26;101176.06;;;15.28;100.00
46718;BME280;32448;44.960;-0.698;2023-01-01T13:19:57;101190.16;;;15.33;100.00
46718;BME280;32448;44.960;-0.698;2023-01-01T13:25:14;101175.22;;;15.38;100.00
46718;BME280;32448;44.960;-0.698;2023-01-01T13:38:51;101152.38;;;15.37;100.00
46718;BME280;32448;44.960;-0.698;2023-01-01T14:03:24;101154.16;;;15.38;100.00
46718;BME280;32448;44.960;-0.698;2023-01-01T14:05:59;101144.41;;;15.17;100.00
46718;BME280;32448;44.960;-0.698;2023-01-01T14:08:42;101148.78;;;15.14;100.00
46718;BME280;32448;44.960;-0.698;2023-01-01T14:11:23;101153.22;;;15.21;100.00
46718;BME280;32448;44.960;-0.698;2023-01-01T14:13:52;101139.13;;;15.10;100.00
46718;BME280;32448;44.960;-0.698;2023-01-01T14:16:19;101148.81;;;15.12;100.00
46718;BME280;32448;44.960;-0.698;2023-01-01T14:19:09;101143.53;;;15.11;100.00
46718;BME280;32448;44.960;-0.698;2023-01-01T14:21:42;101156.69;;;15.17;100.00
46718;BME280;32448;44.960;-0.698;2023-01-01T14:24:14;101165.47;;;15.10;100.00
46718;BME280;32448;44.960;-0.698;2023-01-01T14:26:44;101163.69;;;15.13;100.00
46718;BME280;32448;44.960;-0.698;2023-01-01T14:29:19;101164.59;;;15.12;100.00
46718;BME280;32448;44.960;-0.698;2023-01-01T14:31:49;101150.50;;;15.00;100.00
46718;BME280;32448;44.960;-0.698;2023-01-01T14:34:27;101141.66;;;14.91;100.00
46718;BME280;32448;44.960;-0.698;2023-01-01T14:37:01;101131.09;;;14.85;100.00
46718;BME280;32448;44.960;-0.698;2023-01-01T14:39:30;101128.44;;;14.81;100.00
46718;BME280;32448;44.960;-0.698;2023-01-01T14:42:10;101129.25;;;14.65;100.00
46718;BME280;32448;44.960;-0.698;2023-01-01T14:44:41;101127.50;;;14.71;100.00
46718;BME280;32448;44.960;-0.698;2023-01-01T14:47:31;101124.88;;;14.68;100.00
46718;BME280;32448;44.960;-0.698;2023-01-01T14:50:16;101130.09;;;14.62;100.00
46718;BME280;32448;44.960;-0.698;2023-01-01T14:52:51;101129.25;;;14.66;100.00
46718;BME280;32448;44.960;-0.698;2023-01-01T14:55:42;101101.09;;;14.53;100.00